ROMMA est une association bénévole à but non lucratif. Votre soutien est indispensable : ADHERER à ROMMA ou FAIRE un DON

Taninges - (74, Haute-Savoie)

Vallée du Giffre (635 m)   Longitude: 06° 35' 38" E   Latitude: 46° 06' 21" N Station romma n°98
 

Détail journalier du     <<     >>

Température Precipitation Humidité Pression Vent Dir Rafale Dir. rafale Ensol.
Heure (°C) (mm) (%) (hPa) (km/h) (km/h) (min)
01:00 8.40.69710182ONO8ONO0
02:00 8.40.69710192ENE6ENE0
03:00 8.3097101905ESE0
04:00 8.5097101908NE0
05:00 7.809610191S6ENE0
06:00 7.7097101903S0
07:00 7.209710201S5SSE0
08:00 7.5097102103SE0
09:00 8.609810212ESE8SE30
10:00 9.609710225O15O25
11:00 10.809010223ENE10NO5
12:00 13.107810213SE10SE35
13:00 13.807710215O16ONO15
14:00 14.207310218O18OSO30
15:00 15.006510207O19ONO55
16:00 15.206510208O19O50
17:00 15.006310217O16OSO30
18:00 14.706610214O11ONO45
19:00 11.208010222ENE10NE0
20:00 8.609010231E5ENE0
21:00 6.80921023000
22:00 6.20941023000
23:00 4.8094102305SE0
minuit 4.4096102305E0

Graphique du 10-10-2019

 

Serveur OMMA